sensor_id;sensor_type;location;lat;lon;timestamp;pressure;altitude;pressure_sealevel;temperature;humidity
85094;BME280;75432;49.056;12.004;2024-03-29T00:00:40;95328.13;;;3.32;89.41
85094;BME280;75432;49.056;12.004;2024-03-29T00:03:07;95358.81;;;3.45;89.18
85094;BME280;75432;49.056;12.004;2024-03-29T00:05:36;95226.28;;;2.62;89.11
85094;BME280;75432;49.056;12.004;2024-03-29T00:08:03;95388.53;;;3.64;89.35
85094;BME280;75432;49.056;12.004;2024-03-29T00:10:29;95197.03;;;2.40;89.30
85094;BME280;75432;49.056;12.004;2024-03-29T00:12:54;95395.13;;;3.61;89.41
85094;BME280;75432;49.056;12.004;2024-03-29T00:15:20;95384.53;;;3.61;89.71
85094;BME280;75432;49.056;12.004;2024-03-29T00:17:46;95383.06;;;3.54;89.64
85094;BME280;75432;49.056;12.004;2024-03-29T00:20:11;95389.72;;;3.56;89.83
85094;BME280;75432;49.056;12.004;2024-03-29T00:22:37;95386.63;;;3.48;90.01
85094;BME280;75432;49.056;12.004;2024-03-29T00:25:03;95219.41;;;2.37;90.15
85094;BME280;75432;49.056;12.004;2024-03-29T00:27:29;95203.78;;;2.36;90.42
85094;BME280;75432;49.056;12.004;2024-03-29T00:29:56;95376.63;;;3.50;90.36
85094;BME280;75432;49.056;12.004;2024-03-29T00:32:22;95203.34;;;2.39;90.20
85094;BME280;75432;49.056;12.004;2024-03-29T00:34:50;95084.78;;;1.63;90.15
85094;BME280;75432;49.056;12.004;2024-03-29T00:37:16;95179.97;;;2.19;90.33
85094;BME280;75432;49.056;12.004;2024-03-29T00:39:42;95146.47;;;1.97;90.33
85094;BME280;75432;49.056;12.004;2024-03-29T00:42:09;95057.63;;;1.39;90.19
85094;BME280;75432;49.056;12.004;2024-03-29T00:44:41;95040.66;;;1.23;90.26
85094;BME280;75432;49.056;12.004;2024-03-29T00:47:07;95209.00;;;2.31;90.53
85094;BME280;75432;49.056;12.004;2024-03-29T00:49:33;95291.22;;;2.86;90.56
85094;BME280;75432;49.056;12.004;2024-03-29T00:51:59;95115.72;;;1.79;90.61
85094;BME280;75432;49.056;12.004;2024-03-29T00:54:25;95292.97;;;2.92;90.47
85094;BME280;75432;49.056;12.004;2024-03-29T00:56:50;95309.13;;;3.07;90.76
85094;BME280;75432;49.056;12.004;2024-03-29T00:59:16;95375.03;;;3.49;90.78
85094;BME280;75432;49.056;12.004;2024-03-29T01:01:42;95136.59;;;1.92;90.58
85094;BME280;75432;49.056;12.004;2024-03-29T01:04:08;95391.91;;;3.48;91.12
85094;BME280;75432;49.056;12.004;2024-03-29T01:06:34;95269.00;;;2.59;91.19
85094;BME280;75432;49.056;12.004;2024-03-29T01:09:00;95361.47;;;3.45;91.03
85094;BME280;75432;49.056;12.004;2024-03-29T01:11:26;95337.69;;;3.33;91.78
85094;BME280;75432;49.056;12.004;2024-03-29T01:13:52;95130.63;;;2.08;91.20
85094;BME280;75432;49.056;12.004;2024-03-29T01:16:18;95105.31;;;1.84;91.42
85094;BME280;75432;49.056;12.004;2024-03-29T01:18:44;95322.41;;;3.35;91.50
85094;BME280;75432;49.056;12.004;2024-03-29T01:21:14;95011.28;;;1.43;91.04
85094;BME280;75432;49.056;12.004;2024-03-29T01:23:40;94989.53;;;1.13;91.32
85094;BME280;75432;49.056;12.004;2024-03-29T01:26:06;95142.56;;;1.99;91.52
85094;BME280;75432;49.056;12.004;2024-03-29T01:28:33;95262.75;;;2.88;91.69
85094;BME280;75432;49.056;12.004;2024-03-29T01:30:59;95029.41;;;1.39;91.72
85094;BME280;75432;49.056;12.004;2024-03-29T01:33:25;95075.50;;;1.72;91.65
85094;BME280;75432;49.056;12.004;2024-03-29T01:35:51;94919.56;;;0.82;91.34
85094;BME280;75432;49.056;12.004;2024-03-29T01:38:16;95031.63;;;1.42;91.65
85094;BME280;75432;49.056;12.004;2024-03-29T01:40:42;95230.50;;;2.63;91.73
85094;BME280;75432;49.056;12.004;2024-03-29T01:43:08;95197.59;;;2.42;91.39
85094;BME280;75432;49.056;12.004;2024-03-29T01:45:40;95200.91;;;2.49;91.45
85094;BME280;75432;49.056;12.004;2024-03-29T01:48:08;94855.69;;;0.28;90.83
85094;BME280;75432;49.056;12.004;2024-03-29T01:50:35;95315.75;;;2.81;91.44
85094;BME280;75432;49.056;12.004;2024-03-29T01:53:02;95108.41;;;1.81;91.26
85094;BME280;75432;49.056;12.004;2024-03-29T01:55:28;94927.25;;;0.60;91.08
85094;BME280;75432;49.056;12.004;2024-03-29T01:57:56;95319.00;;;3.12;91.35
85094;BME280;75432;49.056;12.004;2024-03-29T02:00:23;95283.91;;;2.88;90.96
85094;BME280;75432;49.056;12.004;2024-03-29T02:02:49;94923.81;;;0.71;90.65
85094;BME280;75432;49.056;12.004;2024-03-29T02:05:15;95011.31;;;1.31;91.04
85094;BME280;75432;49.056;12.004;2024-03-29T02:07:41;95301.41;;;3.17;91.03
85094;BME280;75432;49.056;12.004;2024-03-29T02:10:10;95222.50;;;2.46;91.01
85094;BME280;75432;49.056;12.004;2024-03-29T02:12:38;95221.03;;;2.50;90.79
85094;BME280;75432;49.056;12.004;2024-03-29T02:15:05;95203.38;;;2.27;90.46
85094;BME280;75432;49.056;12.004;2024-03-29T02:17:31;95181.66;;;2.14;90.47
85094;BME280;75432;49.056;12.004;2024-03-29T02:19:57;95050.63;;;1.44;90.43
85094;BME280;75432;49.056;12.004;2024-03-29T02:22:24;95084.75;;;1.86;90.09
85094;BME280;75432;49.056;12.004;2024-03-29T02:24:54;95141.03;;;2.26;90.09
85094;BME280;75432;49.056;12.004;2024-03-29T02:27:21;95207.28;;;2.76;90.27
85094;BME280;75432;49.056;12.004;2024-03-29T02:29:48;95268.97;;;3.22;90.05
85094;BME280;75432;49.056;12.004;2024-03-29T02:32:13;94816.22;;;0.40;89.38
85094;BME280;75432;49.056;12.004;2024-03-29T02:34:39;95103.06;;;2.27;89.09
85094;BME280;75432;49.056;12.004;2024-03-29T02:37:05;95238.91;;;3.11;89.08
85094;BME280;75432;49.056;12.004;2024-03-29T02:39:31;95256.13;;;3.14;89.16
85094;BME280;75432;49.056;12.004;2024-03-29T02:41:57;95080.09;;;2.16;88.79
85094;BME280;75432;49.056;12.004;2024-03-29T02:44:23;95277.63;;;3.46;88.86
85094;BME280;75432;49.056;12.004;2024-03-29T02:46:48;95290.16;;;3.50;88.85
85094;BME280;75432;49.056;12.004;2024-03-29T02:49:14;95310.59;;;3.55;88.99
85094;BME280;75432;49.056;12.004;2024-03-29T02:51:39;95243.34;;;3.22;88.31
85094;BME280;75432;49.056;12.004;2024-03-29T02:54:05;94825.13;;;0.62;88.42
85094;BME280;75432;49.056;12.004;2024-03-29T02:56:30;95152.50;;;2.72;87.76
85094;BME280;75432;49.056;12.004;2024-03-29T02:58:56;95267.47;;;3.54;88.06
85094;BME280;75432;49.056;12.004;2024-03-29T03:01:22;95262.97;;;3.26;88.08
85094;BME280;75432;49.056;12.004;2024-03-29T03:03:47;95057.06;;;2.12;88.13
85094;BME280;75432;49.056;12.004;2024-03-29T03:06:13;95128.94;;;2.42;88.15
85094;BME280;75432;49.056;12.004;2024-03-29T03:08:38;95040.44;;;2.11;87.56
85094;BME280;75432;49.056;12.004;2024-03-29T03:11:23;95072.28;;;2.21;87.72
85094;BME280;75432;49.056;12.004;2024-03-29T03:13:48;95241.59;;;3.28;87.71
85094;BME280;75432;49.056;12.004;2024-03-29T03:16:14;95278.97;;;3.48;87.69
85094;BME280;75432;49.056;12.004;2024-03-29T03:18:39;95227.19;;;3.07;87.56
85094;BME280;75432;49.056;12.004;2024-03-29T03:21:05;94870.78;;;0.91;87.47
85094;BME280;75432;49.056;12.004;2024-03-29T03:23:31;95167.50;;;2.83;87.50
85094;BME280;75432;49.056;12.004;2024-03-29T03:25:58;95215.31;;;3.10;87.81
85094;BME280;75432;49.056;12.004;2024-03-29T03:28:24;94982.19;;;1.61;87.45
85094;BME280;75432;49.056;12.004;2024-03-29T03:30:53;95287.81;;;3.54;87.10
85094;BME280;75432;49.056;12.004;2024-03-29T03:33:20;95280.38;;;3.51;87.33
85094;BME280;75432;49.056;12.004;2024-03-29T03:35:46;95274.69;;;3.30;86.79
85094;BME280;75432;49.056;12.004;2024-03-29T03:38:12;95169.50;;;2.76;87.28
85094;BME280;75432;49.056;12.004;2024-03-29T03:40:38;95021.44;;;1.86;87.25
85094;BME280;75432;49.056;12.004;2024-03-29T03:43:04;95010.22;;;1.79;87.13
85094;BME280;75432;49.056;12.004;2024-03-29T03:45:35;95257.38;;;3.51;87.41
85094;BME280;75432;49.056;12.004;2024-03-29T03:48:05;95028.88;;;2.01;86.92
85094;BME280;75432;49.056;12.004;2024-03-29T03:50:32;95047.75;;;2.09;87.29
85094;BME280;75432;49.056;12.004;2024-03-29T03:52:58;95000.38;;;1.63;86.91
85094;BME280;75432;49.056;12.004;2024-03-29T03:55:24;95346.53;;;3.39;87.20
85094;BME280;75432;49.056;12.004;2024-03-29T03:57:53;95303.31;;;3.33;87.16
85094;BME280;75432;49.056;12.004;2024-03-29T04:00:19;95048.66;;;1.75;87.26
85094;BME280;75432;49.056;12.004;2024-03-29T04:02:49;95121.97;;;2.24;87.67
85094;BME280;75432;49.056;12.004;2024-03-29T04:05:19;95054.50;;;1.77;87.23
85094;BME280;75432;49.056;12.004;2024-03-29T04:07:45;95121.88;;;2.19;87.51
85094;BME280;75432;49.056;12.004;2024-03-29T04:10:10;95239.09;;;2.93;87.58
85094;BME280;75432;49.056;12.004;2024-03-29T04:12:36;95020.69;;;1.62;87.86
85094;BME280;75432;49.056;12.004;2024-03-29T04:15:02;94851.47;;;0.62;87.40
85094;BME280;75432;49.056;12.004;2024-03-29T04:17:29;94993.22;;;1.47;87.59
85094;BME280;75432;49.056;12.004;2024-03-29T04:19:57;94921.97;;;0.95;87.51
85094;BME280;75432;49.056;12.004;2024-03-29T04:22:23;95294.16;;;3.13;87.94
85094;BME280;75432;49.056;12.004;2024-03-29T04:24:49;95034.09;;;1.72;87.86
85094;BME280;75432;49.056;12.004;2024-03-29T04:27:14;95280.81;;;3.19;88.00
85094;BME280;75432;49.056;12.004;2024-03-29T04:29:40;95062.16;;;1.90;87.72
85094;BME280;75432;49.056;12.004;2024-03-29T04:32:06;95256.94;;;3.14;88.28
85094;BME280;75432;49.056;12.004;2024-03-29T04:34:31;95077.44;;;1.88;87.78
85094;BME280;75432;49.056;12.004;2024-03-29T04:36:57;95222.91;;;2.78;87.90
85094;BME280;75432;49.056;12.004;2024-03-29T04:39:23;94999.84;;;1.37;88.14
85094;BME280;75432;49.056;12.004;2024-03-29T04:41:48;94896.13;;;0.69;88.11
85094;BME280;75432;49.056;12.004;2024-03-29T04:44:23;95184.94;;;2.56;88.40
85094;BME280;75432;49.056;12.004;2024-03-29T04:46:49;95209.81;;;2.71;88.08
85094;BME280;75432;49.056;12.004;2024-03-29T04:49:15;95246.88;;;3.00;88.56
85094;BME280;75432;49.056;12.004;2024-03-29T04:51:43;95263.97;;;3.09;88.42
85094;BME280;75432;49.056;12.004;2024-03-29T04:54:08;95094.41;;;1.92;87.71
85094;BME280;75432;49.056;12.004;2024-03-29T04:56:34;94997.91;;;1.44;87.62
85094;BME280;75432;49.056;12.004;2024-03-29T04:59:02;95071.19;;;1.94;88.03
85094;BME280;75432;49.056;12.004;2024-03-29T05:01:28;94911.78;;;0.87;87.55
85094;BME280;75432;49.056;12.004;2024-03-29T05:03:53;95209.97;;;2.65;87.95
85094;BME280;75432;49.056;12.004;2024-03-29T05:06:19;95081.88;;;1.99;87.50
85094;BME280;75432;49.056;12.004;2024-03-29T05:08:44;95022.75;;;1.60;87.25
85094;BME280;75432;49.056;12.004;2024-03-29T05:11:10;95272.41;;;3.22;87.25
85094;BME280;75432;49.056;12.004;2024-03-29T05:13:39;95249.94;;;3.08;87.31
85094;BME280;75432;49.056;12.004;2024-03-29T05:16:05;95157.69;;;2.67;86.78
85094;BME280;75432;49.056;12.004;2024-03-29T05:18:31;95230.59;;;3.19;86.52
85094;BME280;75432;49.056;12.004;2024-03-29T05:20:56;95228.88;;;3.13;85.84
85094;BME280;75432;49.056;12.004;2024-03-29T05:23:22;95199.41;;;3.21;86.11
85094;BME280;75432;49.056;12.004;2024-03-29T05:25:48;95277.41;;;3.64;85.61
85094;BME280;75432;49.056;12.004;2024-03-29T05:28:15;95048.75;;;2.31;85.03
85094;BME280;75432;49.056;12.004;2024-03-29T05:30:40;94949.81;;;1.77;84.70
85094;BME280;75432;49.056;12.004;2024-03-29T05:33:06;95160.63;;;3.10;84.58
85094;BME280;75432;49.056;12.004;2024-03-29T05:35:33;95243.28;;;3.79;83.99
85094;BME280;75432;49.056;12.004;2024-03-29T05:37:59;95045.31;;;2.48;84.42
85094;BME280;75432;49.056;12.004;2024-03-29T05:40:24;95056.13;;;2.74;83.55
85094;BME280;75432;49.056;12.004;2024-03-29T05:42:53;95262.78;;;4.06;83.65
85094;BME280;75432;49.056;12.004;2024-03-29T05:45:26;95153.22;;;3.41;83.38
85094;BME280;75432;49.056;12.004;2024-03-29T05:47:57;95105.91;;;3.11;82.96
85094;BME280;75432;49.056;12.004;2024-03-29T05:50:24;95016.47;;;2.29;83.51
85094;BME280;75432;49.056;12.004;2024-03-29T05:52:53;95099.13;;;2.70;83.61
85094;BME280;75432;49.056;12.004;2024-03-29T05:55:19;95077.88;;;2.65;84.25
85094;BME280;75432;49.056;12.004;2024-03-29T05:57:45;95145.72;;;3.04;83.93
85094;BME280;75432;49.056;12.004;2024-03-29T06:00:12;95019.59;;;2.26;84.19
85094;BME280;75432;49.056;12.004;2024-03-29T06:02:39;95237.25;;;3.67;84.12
85094;BME280;75432;49.056;12.004;2024-03-29T06:05:05;95270.00;;;3.94;84.21
85094;BME280;75432;49.056;12.004;2024-03-29T06:07:32;95273.44;;;3.95;84.09
85094;BME280;75432;49.056;12.004;2024-03-29T06:09:59;95295.06;;;3.75;83.99
85094;BME280;75432;49.056;12.004;2024-03-29T06:12:25;95009.63;;;2.17;84.25
85094;BME280;75432;49.056;12.004;2024-03-29T06:14:51;94862.03;;;1.25;84.47
85094;BME280;75432;49.056;12.004;2024-03-29T06:17:35;95235.91;;;3.81;84.08
85094;BME280;75432;49.056;12.004;2024-03-29T06:20:02;95234.41;;;3.85;83.28
85094;BME280;75432;49.056;12.004;2024-03-29T06:22:29;95055.84;;;3.04;82.60
85094;BME280;75432;49.056;12.004;2024-03-29T06:24:58;94977.50;;;2.65;82.29
85094;BME280;75432;49.056;12.004;2024-03-29T06:27:25;95238.63;;;4.74;81.88
85094;BME280;75432;49.056;12.004;2024-03-29T06:29:51;95288.94;;;4.91;81.58
85094;BME280;75432;49.056;12.004;2024-03-29T06:32:17;95021.06;;;3.46;81.47
85094;BME280;75432;49.056;12.004;2024-03-29T06:34:47;95288.84;;;5.24;81.06
85094;BME280;75432;49.056;12.004;2024-03-29T06:37:13;95068.38;;;3.64;80.78
85094;BME280;75432;49.056;12.004;2024-03-29T06:39:38;95121.63;;;4.22;81.10
85094;BME280;75432;49.056;12.004;2024-03-29T06:42:04;95033.28;;;3.90;80.55
85094;BME280;75432;49.056;12.004;2024-03-29T06:44:33;95226.59;;;5.32;79.67
85094;BME280;75432;49.056;12.004;2024-03-29T06:46:59;95304.03;;;5.78;79.65
85094;BME280;75432;49.056;12.004;2024-03-29T06:49:24;95287.44;;;5.65;79.53
85094;BME280;75432;49.056;12.004;2024-03-29T06:51:50;94921.88;;;3.26;79.70
85094;BME280;75432;49.056;12.004;2024-03-29T06:54:16;95024.25;;;3.86;79.83
85094;BME280;75432;49.056;12.004;2024-03-29T06:56:41;95201.00;;;4.99;79.81
85094;BME280;75432;49.056;12.004;2024-03-29T06:59:07;95060.41;;;3.97;79.81
85094;BME280;75432;49.056;12.004;2024-03-29T07:01:33;95046.75;;;4.05;79.06
85094;BME280;75432;49.056;12.004;2024-03-29T07:03:59;94971.19;;;3.54;79.23
85094;BME280;75432;49.056;12.004;2024-03-29T07:06:25;94983.94;;;3.41;78.44
85094;BME280;75432;49.056;12.004;2024-03-29T07:08:50;95202.25;;;4.70;79.74
85094;BME280;75432;49.056;12.004;2024-03-29T07:11:16;95089.63;;;3.86;79.46
85094;BME280;75432;49.056;12.004;2024-03-29T07:13:41;95313.16;;;5.16;79.89
85094;BME280;75432;49.056;12.004;2024-03-29T07:16:07;95203.28;;;4.47;79.78
85094;BME280;75432;49.056;12.004;2024-03-29T07:18:33;95184.63;;;4.20;80.34
85094;BME280;75432;49.056;12.004;2024-03-29T07:20:58;95212.88;;;4.53;80.31
85094;BME280;75432;49.056;12.004;2024-03-29T07:23:24;95078.66;;;3.77;80.61
85094;BME280;75432;49.056;12.004;2024-03-29T07:25:59;95295.63;;;5.15;80.02
85094;BME280;75432;49.056;12.004;2024-03-29T07:28:25;95286.06;;;5.14;80.35
85094;BME280;75432;49.056;12.004;2024-03-29T07:30:51;95141.56;;;4.08;80.33
85094;BME280;75432;49.056;12.004;2024-03-29T07:33:19;95278.97;;;5.20;80.00
85094;BME280;75432;49.056;12.004;2024-03-29T07:35:47;95072.22;;;3.90;80.30
85094;BME280;75432;49.056;12.004;2024-03-29T07:38:15;95077.53;;;4.11;79.95
85094;BME280;75432;49.056;12.004;2024-03-29T07:40:43;95002.03;;;3.87;79.93
85094;BME280;75432;49.056;12.004;2024-03-29T07:43:08;94986.00;;;3.99;79.53
85094;BME280;75432;49.056;12.004;2024-03-29T07:45:34;95245.38;;;5.79;79.18
85094;BME280;75432;49.056;12.004;2024-03-29T07:47:59;95232.72;;;5.86;78.76
85094;BME280;75432;49.056;12.004;2024-03-29T07:50:25;94926.72;;;4.00;78.08
85094;BME280;75432;49.056;12.004;2024-03-29T07:52:51;95034.41;;;4.64;77.38
85094;BME280;75432;49.056;12.004;2024-03-29T07:55:16;95084.00;;;5.17;77.30
85094;BME280;75432;49.056;12.004;2024-03-29T07:57:42;95224.06;;;6.38;77.72
85094;BME280;75432;49.056;12.004;2024-03-29T08:00:08;95033.34;;;5.61;74.90
85094;BME280;75432;49.056;12.004;2024-03-29T08:02:35;95216.94;;;6.90;76.11
85094;BME280;75432;49.056;12.004;2024-03-29T08:05:01;95189.97;;;6.77;75.91
85094;BME280;75432;49.056;12.004;2024-03-29T08:07:26;95161.47;;;6.62;75.67
85094;BME280;75432;49.056;12.004;2024-03-29T08:09:52;95267.56;;;7.15;75.28
85094;BME280;75432;49.056;12.004;2024-03-29T08:12:17;95271.53;;;7.08;74.24
85094;BME280;75432;49.056;12.004;2024-03-29T08:14:43;95193.00;;;6.90;75.76
85094;BME280;75432;49.056;12.004;2024-03-29T08:17:09;95122.38;;;6.62;75.17
85094;BME280;75432;49.056;12.004;2024-03-29T08:19:35;94998.34;;;6.06;73.73
85094;BME280;75432;49.056;12.004;2024-03-29T08:22:01;95157.41;;;7.06;73.76
85094;BME280;75432;49.056;12.004;2024-03-29T08:24:30;95192.38;;;7.55;71.89
85094;BME280;75432;49.056;12.004;2024-03-29T08:26:56;95061.56;;;6.91;72.63
85094;BME280;75432;49.056;12.004;2024-03-29T08:29:22;95123.94;;;7.41;72.11
85094;BME280;75432;49.056;12.004;2024-03-29T08:31:47;95055.75;;;7.04;70.36
85094;BME280;75432;49.056;12.004;2024-03-29T08:34:13;95161.25;;;8.06;70.93
85094;BME280;75432;49.056;12.004;2024-03-29T08:36:41;95182.00;;;7.99;69.37
85094;BME280;75432;49.056;12.004;2024-03-29T08:39:07;94972.44;;;6.63;68.81
85094;BME280;75432;49.056;12.004;2024-03-29T08:41:32;95272.13;;;8.58;67.96
85094;BME280;75432;49.056;12.004;2024-03-29T08:43:58;95227.59;;;8.38;69.53
85094;BME280;75432;49.056;12.004;2024-03-29T08:46:23;95249.97;;;8.73;70.15
85094;BME280;75432;49.056;12.004;2024-03-29T08:48:49;95011.84;;;7.42;68.56
85094;BME280;75432;49.056;12.004;2024-03-29T08:51:14;94939.50;;;6.90;68.08
85094;BME280;75432;49.056;12.004;2024-03-29T08:53:41;95260.56;;;9.03;68.97
85094;BME280;75432;49.056;12.004;2024-03-29T08:56:07;95003.56;;;7.54;68.46
85094;BME280;75432;49.056;12.004;2024-03-29T08:58:32;95082.34;;;8.00;67.94
85094;BME280;75432;49.056;12.004;2024-03-29T09:00:58;95096.25;;;7.72;68.89
85094;BME280;75432;49.056;12.004;2024-03-29T09:03:24;95225.47;;;8.45;69.29
85094;BME280;75432;49.056;12.004;2024-03-29T09:05:51;95279.81;;;8.85;70.05
85094;BME280;75432;49.056;12.004;2024-03-29T09:08:19;95099.97;;;7.81;70.09
85094;BME280;75432;49.056;12.004;2024-03-29T09:10:45;95228.94;;;8.31;69.62
85094;BME280;75432;49.056;12.004;2024-03-29T09:13:11;95093.03;;;7.40;70.58
85094;BME280;75432;49.056;12.004;2024-03-29T09:15:37;95206.53;;;8.01;70.04
85094;BME280;75432;49.056;12.004;2024-03-29T09:18:03;95284.94;;;8.41;70.58
85094;BME280;75432;49.056;12.004;2024-03-29T09:20:36;94991.78;;;6.39;70.94
85094;BME280;75432;49.056;12.004;2024-03-29T09:23:02;95277.44;;;8.12;71.41
85094;BME280;75432;49.056;12.004;2024-03-29T09:25:27;94981.13;;;6.29;71.58
85094;BME280;75432;49.056;12.004;2024-03-29T09:27:53;95303.06;;;8.39;71.39
85094;BME280;75432;49.056;12.004;2024-03-29T09:30:19;95278.50;;;8.22;71.54
85094;BME280;75432;49.056;12.004;2024-03-29T09:32:45;95101.56;;;7.22;71.70
85094;BME280;75432;49.056;12.004;2024-03-29T09:35:11;95300.91;;;8.81;71.34
85094;BME280;75432;49.056;12.004;2024-03-29T09:37:36;95006.00;;;7.15;70.65
85094;BME280;75432;49.056;12.004;2024-03-29T09:40:04;95178.00;;;8.27;69.88
85094;BME280;75432;49.056;12.004;2024-03-29T09:42:31;95146.28;;;8.15;69.58
85094;BME280;75432;49.056;12.004;2024-03-29T09:44:58;95225.16;;;8.72;70.15
85094;BME280;75432;49.056;12.004;2024-03-29T09:47:25;95187.84;;;8.57;69.70
85094;BME280;75432;49.056;12.004;2024-03-29T09:49:52;95058.94;;;7.82;69.92
85094;BME280;75432;49.056;12.004;2024-03-29T09:52:20;94997.19;;;7.55;70.24
85094;BME280;75432;49.056;12.004;2024-03-29T09:54:46;95283.69;;;9.33;69.79
85094;BME280;75432;49.056;12.004;2024-03-29T09:57:12;95261.19;;;9.49;69.68
85094;BME280;75432;49.056;12.004;2024-03-29T09:59:38;95192.31;;;9.41;69.18
85094;BME280;75432;49.056;12.004;2024-03-29T10:02:15;95147.28;;;9.68;67.48
85094;BME280;75432;49.056;12.004;2024-03-29T10:04:45;95247.31;;;10.64;66.84
85094;BME280;75432;49.056;12.004;2024-03-29T10:07:12;95233.53;;;10.51;66.19
85094;BME280;75432;49.056;12.004;2024-03-29T10:09:39;95254.47;;;10.44;66.31
85094;BME280;75432;49.056;12.004;2024-03-29T10:12:05;95004.25;;;8.69;66.98
85094;BME280;75432;49.056;12.004;2024-03-29T10:14:31;95259.28;;;10.03;66.67
85094;BME280;75432;49.056;12.004;2024-03-29T10:17:00;95132.38;;;9.13;67.71
85094;BME280;75432;49.056;12.004;2024-03-29T10:19:25;95121.97;;;9.17;68.67
85094;BME280;75432;49.056;12.004;2024-03-29T10:21:51;95171.44;;;9.48;68.25
85094;BME280;75432;49.056;12.004;2024-03-29T10:24:17;95160.75;;;9.48;68.25
85094;BME280;75432;49.056;12.004;2024-03-29T10:26:43;95248.47;;;10.24;67.75
85094;BME280;75432;49.056;12.004;2024-03-29T10:29:09;95158.34;;;9.85;67.40
85094;BME280;75432;49.056;12.004;2024-03-29T10:31:35;95025.00;;;9.26;66.15
85094;BME280;75432;49.056;12.004;2024-03-29T10:34:05;95056.00;;;10.14;63.85
85094;BME280;75432;49.056;12.004;2024-03-29T10:36:31;95249.63;;;12.45;62.37
85094;BME280;75432;49.056;12.004;2024-03-29T10:39:09;95052.47;;;12.24;56.44
85094;BME280;75432;49.056;12.004;2024-03-29T10:41:40;95005.53;;;12.76;56.79
85094;BME280;75432;49.056;12.004;2024-03-29T10:44:09;95258.91;;;14.97;55.50
85094;BME280;75432;49.056;12.004;2024-03-29T10:46:36;95240.47;;;15.52;53.48
85094;BME280;75432;49.056;12.004;2024-03-29T10:49:03;95232.63;;;16.07;52.23
85094;BME280;75432;49.056;12.004;2024-03-29T10:51:30;95222.66;;;16.25;51.83
85094;BME280;75432;49.056;12.004;2024-03-29T10:53:57;95055.38;;;15.08;50.86
85094;BME280;75432;49.056;12.004;2024-03-29T10:56:24;95076.63;;;15.18;51.50
85094;BME280;75432;49.056;12.004;2024-03-29T10:58:54;95031.16;;;15.25;50.65
85094;BME280;75432;49.056;12.004;2024-03-29T11:01:23;95180.06;;;16.39;50.16
85094;BME280;75432;49.056;12.004;2024-03-29T11:03:54;95257.44;;;16.43;49.16
85094;BME280;75432;49.056;12.004;2024-03-29T11:06:26;95191.69;;;15.40;51.65
85094;BME280;75432;49.056;12.004;2024-03-29T11:08:56;95215.13;;;15.31;51.81
85094;BME280;75432;49.056;12.004;2024-03-29T11:11:24;95200.94;;;15.08;52.02
85094;BME280;75432;49.056;12.004;2024-03-29T11:14:02;95256.56;;;15.35;50.84
85094;BME280;75432;49.056;12.004;2024-03-29T11:16:29;95102.75;;;14.52;52.42
85094;BME280;75432;49.056;12.004;2024-03-29T11:18:55;95265.84;;;16.76;50.90
85094;BME280;75432;49.056;12.004;2024-03-29T11:21:21;95176.94;;;17.88;47.40
85094;BME280;75432;49.056;12.004;2024-03-29T11:23:51;94940.78;;;17.17;45.05
85094;BME280;75432;49.056;12.004;2024-03-29T11:26:18;95267.81;;;20.56;44.03
85094;BME280;75432;49.056;12.004;2024-03-29T11:28:51;95187.63;;;20.50;40.17
85094;BME280;75432;49.056;12.004;2024-03-29T11:31:17;95101.75;;;20.49;41.01
85094;BME280;75432;49.056;12.004;2024-03-29T11:36:20;95095.63;;;21.96;36.68
85094;BME280;75432;49.056;12.004;2024-03-29T11:38:53;95062.53;;;22.36;35.76
85094;BME280;75432;49.056;12.004;2024-03-29T11:41:23;95134.75;;;23.49;33.81
85094;BME280;75432;49.056;12.004;2024-03-29T11:43:50;95101.00;;;22.92;35.25
85094;BME280;75432;49.056;12.004;2024-03-29T11:46:16;94972.94;;;21.19;36.54
85094;BME280;75432;49.056;12.004;2024-03-29T11:48:43;95034.66;;;21.00;37.56
85094;BME280;75432;49.056;12.004;2024-03-29T11:51:11;95209.81;;;21.07;38.48
85094;BME280;75432;49.056;12.004;2024-03-29T11:53:39;95042.66;;;19.38;40.63
85094;BME280;75432;49.056;12.004;2024-03-29T11:56:06;95117.63;;;18.82;41.72
85094;BME280;75432;49.056;12.004;2024-03-29T11:58:33;95067.34;;;17.53;44.00
85094;BME280;75432;49.056;12.004;2024-03-29T12:00:59;95066.72;;;16.68;44.89
85094;BME280;75432;49.056;12.004;2024-03-29T12:03:28;95170.81;;;16.74;46.28
85094;BME280;75432;49.056;12.004;2024-03-29T12:05:55;94973.88;;;15.02;47.78
85094;BME280;75432;49.056;12.004;2024-03-29T12:08:24;94975.41;;;14.69;48.75
85094;BME280;75432;49.056;12.004;2024-03-29T12:10:51;95037.66;;;15.24;49.04
85094;BME280;75432;49.056;12.004;2024-03-29T12:13:18;95116.16;;;16.43;48.37
85094;BME280;75432;49.056;12.004;2024-03-29T12:15:44;94875.44;;;17.27;44.48
85094;BME280;75432;49.056;12.004;2024-03-29T12:18:10;94886.16;;;18.26;41.86
85094;BME280;75432;49.056;12.004;2024-03-29T12:20:39;95145.97;;;20.89;40.39
85094;BME280;75432;49.056;12.004;2024-03-29T12:23:06;95119.13;;;21.19;39.27
85094;BME280;75432;49.056;12.004;2024-03-29T12:25:33;95011.16;;;20.60;38.52
85094;BME280;75432;49.056;12.004;2024-03-29T12:27:59;95006.94;;;20.47;38.87
85094;BME280;75432;49.056;12.004;2024-03-29T12:30:26;95064.03;;;21.76;38.02
85094;BME280;75432;49.056;12.004;2024-03-29T12:33:05;95152.47;;;24.41;34.27
85094;BME280;75432;49.056;12.004;2024-03-29T12:35:37;95120.78;;;26.08;30.76
85094;BME280;75432;49.056;12.004;2024-03-29T12:38:04;95023.31;;;26.46;30.05
85094;BME280;75432;49.056;12.004;2024-03-29T12:40:32;95055.59;;;25.30;31.32
85094;BME280;75432;49.056;12.004;2024-03-29T12:43:03;94969.66;;;23.50;33.10
85094;BME280;75432;49.056;12.004;2024-03-29T12:45:31;94994.88;;;25.89;30.69
85094;BME280;75432;49.056;12.004;2024-03-29T12:47:56;94970.44;;;28.39;25.86
85094;BME280;75432;49.056;12.004;2024-03-29T12:52:47;94946.13;;;24.86;29.91
85094;BME280;75432;49.056;12.004;2024-03-29T12:55:13;95027.03;;;23.50;32.51
85094;BME280;75432;49.056;12.004;2024-03-29T12:57:40;95064.50;;;23.00;34.16
85094;BME280;75432;49.056;12.004;2024-03-29T13:00:08;95019.50;;;24.33;31.84